Data for 06/02/2008

Time Sea-Level Adjusted Pressure Absolute Pressure Temperature Relative Humidity Dew Point   
(mb) (inHg) (mb) (inHg) (C) (F) (%) (C) (F)
00:05 1017 30.03 846 24.98 10.3 50.5 89 8.6 47.5
00:10 1017 30.03 846 24.98 10.3 50.5 89 8.6 47.6
00:15 1017 30.03 846 24.98 10.4 50.8 89 8.8 47.8
00:20 1017 30.03 846 24.98 10.4 50.8 90 8.9 48.1
00:25 1017 30.03 846 24.98 10.4 50.6 91 9 48.2
00:30 1017 30.03 846 24.98 10.2 50.3 93 9 48.3
00:35 1017 30.03 846 24.98 10 49.9 94 9 48.2
00:40 1017 30.03 846 24.98 9.8 49.7 95 9.1 48.4
00:45 1017 30.03 846 24.98 9.8 49.6 96 9.1 48.4
00:50 1017 30.03 846 24.98 9.9 49.9 96 9.3 48.8
00:55 1017 30.03 846 24.98 10.1 50.2 96 9.5 49.1
01:00 1017 30.03 846 24.98 10.2 50.3 96 9.6 49.2
01:05 1017 30.03 846 24.98 10.3 50.5 97 9.7 49.5
01:10 1017 30.03 846 24.98 10.3 50.5 97 9.8 49.7
01:15 1017 30.03 846 24.98 10.4 50.6 97 10 49.9
01:20 1017 30.03 846 24.98 10.3 50.6 98 10 49.9
01:25 1017 30.03 846 24.98 10.3 50.5 98 10 49.9
01:30 1017 30.03 846 24.98 10 50.1 99 9.9 49.8
01:35 1017 30.03 846 24.98 9.8 49.7 163 17.2 63
01:40 1017 30.03 846 24.98 9.7 49.5 163 17.1 62.8
01:45 1017 30.03 846 24.98 9.7 49.5 163 17.1 62.8
01:50 1017 30.03 846 24.98 9.7 49.4 163 17.1 62.8
01:55 1017 30.03 846 24.98 9.6 49.3 163 17 62.7
02:00 1017 30.03 846 24.98 9.6 49.3 163 17.1 62.7
02:05 1017 30.03 846 24.98 9.6 49.3 164 17.1 62.7
02:10 1017 30.03 846 24.98 9.6 49.2 163 17 62.6
02:15 1017 30.03 846 24.98 9.6 49.2 163 17 62.6
02:20 1017 30.03 846 24.98 9.6 49.3 163 17 62.6
02:25 1017 30.03 846 24.98 9.7 49.5 163 17.2 62.9
02:30 1017 30.03 846 24.98 9.8 49.7 163 17.3 63.1
02:35 1017 30.03 846 24.98 9.8 49.7 163 17.3 63.1
02:40 1017 30.03 846 24.98 9.7 49.5 164 17.2 62.9
02:45 1017 30.03 846 24.98 9.8 49.6 163 17.2 63
02:50 1017 30.03 846 24.98 9.8 49.6 163 17.2 63
02:55 1017 30.03 846 24.98 9.8 49.6 164 17.2 63
03:00 1017 30.03 846 24.98 9.8 49.6 163 17.2 63
03:05 1017 30.03 846 24.98 9.8 49.6 163 17.2 63
03:10 1017 30.03 846 24.98 9.8 49.7 163 17.3 63.1
03:15 1017 30.03 846 24.98 9.8 49.6 164 17.2 63
03:20 1017 30.03 846 24.98 9.7 49.4 164 17.1 62.8
03:25 1017 30.03 846 24.98 9.7 49.4 164 17.1 62.8
03:30 1017 30.03 846 24.98 9.8 49.6 164 17.2 63
03:35 1017 30.03 846 24.98 9.7 49.4 164 17.1 62.8
03:40 1017 30.03 846 24.98 9.6 49.3 164 17 62.7
03:45 1017 30.03 846 24.98 9.5 49.1 164 16.9 62.5
03:50 1017 30.03 846 24.98 9.4 49 164 16.9 62.3
03:55 1017 30.03 846 24.98 9.5 49 164 16.9 62.4
04:00 1017 30.03 846 24.98 9.4 49 164 16.9 62.3
04:05 1017 30.03 846 24.98 9.5 49 164 16.9 62.4
04:10 1017 30.03 846 24.98 9.5 49 163 16.9 62.4
04:15 1017 30.03 846 24.98 9.5 49 164 16.9 62.4
04:20 1017 30.03 846 24.98 9.5 49 164 16.9 62.4
04:25 1017 30.03 846 24.98 9.5 49.1 164 17 62.5
04:30 1017 30.03 846 24.98 9.6 49.2 164 17 62.6
04:35 1017 30.03 846 24.98 9.7 49.4 163 17.1 62.8
04:40 1016 30 846 24.98 9.8 49.7 164 17.3 63.1
04:45 1016 30 846 24.98 9.9 49.7 164 17.3 63.2
04:50 1016 30 846 24.98 9.9 49.7 164 17.3 63.2
04:55 1016 30 846 24.98 9.8 49.6 164 17.2 63
05:00 1016 30 846 24.98 9.6 49.3 164 17.1 62.7
05:05 1016 30 846 24.98 9.6 49.2 164 17 62.6
05:10 1016 30 846 24.98 9.6 49.3 164 17 62.7
05:15 1016 30 846 24.98 9.7 49.4 164 17.1 62.8
05:20 1016 30 845 24.95 9.5 49 164 16.9 62.4
05:25 1016 30 846 24.98 9.5 49 164 16.9 62.4
05:30 1016 30 846 24.98 9.5 49.1 164 17 62.5
05:35 1016 30 846 24.98 9.5 49.1 164 17 62.5
05:40 1016 30 846 24.98 9.5 49 164 16.9 62.4
05:45 1016 30 845 24.95 9.4 48.9 164 16.8 62.3
05:50 1016 30 845 24.95 9.2 48.6 164 16.7 62
05:55 1016 30 845 24.95 9.2 48.6 164 16.6 61.9
06:00 1016 30 845 24.95 9.1 48.5 164 16.6 61.8
06:05 1016 30 846 24.98 9.1 48.4 164 16.5 61.8
06:10 1016 30 846 24.98 9 48.2 164 16.4 61.5
06:15 1016 30 845 24.95 8.9 48.1 164 16.4 61.5
06:20 1016 30 846 24.98 9 48.2 164 16.4 61.6
06:25 1016 30 846 24.98 9.1 48.3 164 16.5 61.7
06:30 1016 30 846 24.98 9.1 48.3 164 16.5 61.7
06:35 1016 30 846 24.98 9.1 48.3 164 16.5 61.7
06:40 1016 30 846 24.98 9.1 48.3 164 16.5 61.7
06:45 1016 30 846 24.98 9.1 48.3 164 16.5 61.7
06:50 1016 30 846 24.98 9.1 48.3 164 16.5 61.7
06:55 1017 30.03 846 24.98 9 48.1 164 16.4 61.5
07:00 1017 30.03 846 24.98 8.9 48.1 164 16.3 61.4
07:05 1016 30 846 24.98 8.9 48.1 164 16.3 61.4
07:10 1016 30 846 24.98 9 48.1 164 16.4 61.5
07:15 1017 30.03 846 24.98 9.1 48.3 164 16.5 61.7
07:20 1017 30.03 846 24.98 9.2 48.5 164 16.6 61.9
07:25 1017 30.03 846 24.98 9.3 48.7 163 16.7 62
07:30 1017 30.03 846 24.98 9.3 48.7 164 16.7 62.1
07:35 1017 30.03 846 24.98 9.3 48.7 164 16.7 62.1
07:40 1017 30.03 846 24.98 9.5 49 164 16.9 62.4
07:45 1017 30.03 846 24.98 9.5 49.1 164 17 62.5
07:50 1017 30.03 846 24.98 9.6 49.2 164 17 62.6
07:55 1017 30.03 846 24.98 9.7 49.5 164 17.2 62.9
08:00 1017 30.03 846 24.98 9.8 49.6 164 17.3 63.1
08:05 1017 30.03 846 24.98 9.9 49.8 164 17.4 63.2
08:10 1017 30.03 846 24.98 10.1 50.1 164 17.6 63.6
08:15 1017 30.03 846 24.98 10.3 50.5 164 17.7 63.9
08:20 1017 30.03 846 24.98 10.8 51.5 164 18.3 65
08:25 1017 30.03 846 24.98 10.7 51.3 164 18.2 64.8
08:30 1017 30.03 846 24.98 10.8 51.4 163 18.3 64.9
08:35 1016 30 846 24.98 10.9 51.6 163 18.4 65.1
08:40 1016 30 846 24.98 11.3 52.3 163 18.8 65.8
08:45 1016 30 846 24.98 11.6 52.8 163 19.1 66.4
08:50 1016 30 846 24.98 12 53.7 163 19.6 67.3
08:55 1016 30 846 24.98 12.9 55.2 88 10.9 51.6
09:00 1016 30 846 24.98 13.3 56 83 10.5 50.9
09:05 1016 30 846 24.98 13.2 55.8 82 10.2 50.4
09:10 1016 30 845 24.95 13.4 56.2 79 9.8 49.7
09:15 1016 30 845 24.95 13.9 57 76 9.9 49.7
09:20 1016 30 845 24.95 14.3 57.7 74 9.8 49.6
09:25 1016 30 845 24.95 14.8 58.7 72 9.9 49.8
09:30 1016 30 845 24.95 15.6 60 68 9.8 49.6
09:35 1016 30 845 24.95 15.6 60.1 67 9.5 49.2
09:40 1016 30 845 24.95 14.8 58.6 69 9.2 48.5
09:45 1016 30 845 24.95 14.8 58.6 67 8.8 47.9
09:50 1016 30 845 24.95 14.9 58.7 66 8.7 47.6
09:55 1016 30 845 24.95 15.3 59.6 60 7.6 45.7
10:00 1016 30 845 24.95 16.1 61 56 7.3 45.2
10:05 1016 30 845 24.95 15.3 59.6 61 7.8 46.1
10:10 1016 30 845 24.95 15.6 60 59 7.7 45.8
10:15 1016 30 845 24.95 15.4 59.7 58 7.2 45
10:20 1016 30 845 24.95 15.9 60.6 58 7.8 46.1
10:25 1016 30 845 24.95 16.9 62.4 55 8 46.4
10:30 1016 30 845 24.95 16.3 61.3 61 8.9 48
10:35 1016 30 845 24.95 15.9 60.6 61 8.3 47
10:40 1016 30 845 24.95 14.7 58.4 67 8.6 47.4
10:45 1016 30 845 24.95 14.8 58.7 64 8.2 46.7
10:50 1016 30 845 24.95 14.8 58.6 66 8.6 47.6
10:55 1015 29.97 845 24.95 14.9 58.8 70 9.6 49.3
11:00 1015 29.97 845 24.95 14.8 58.7 68 9 48.2
11:05 1015 29.97 845 24.95 15 59 65 8.5 47.3
11:10 1015 29.97 845 24.95 15.5 59.9 63 8.5 47.4
11:15 1015 29.97 845 24.95 15.1 59.2 65 8.7 47.6
11:20 1015 29.97 845 24.95 15.1 59.1 64 8.5 47.3
11:25 1015 29.97 844 24.92 16.6 61.9 61 9 48.2
11:30 1015 29.97 844 24.92 17.3 63.2 58 9.1 48.4
11:35 1015 29.97 844 24.92 17.6 63.7 59 9.5 49.2
11:40 1015 29.97 844 24.92 16.9 62.5 59 9 48.3
11:45 1015 29.97 844 24.92 17.3 63.2 58 9 48.1
11:50 1015 29.97 844 24.92 17.4 63.3 55 8.4 47
11:55 1015 29.97 844 24.92 16.8 62.2 60 9 48.2
12:00 1015 29.97 844 24.92 17.5 63.5 56 8.9 48
12:05 1015 29.97 844 24.92 18.3 64.9 54 8.8 47.8
12:10 1015 29.97 844 24.92 17 62.5 58 8.7 47.7
12:15 1015 29.97 844 24.92 17.3 63.1 56 8.4 47.1
12:20 1015 29.97 844 24.92 17 62.6 58 8.9 48
12:25 1015 29.97 844 24.92 17.7 63.9 55 8.6 47.5
12:30 1015 29.97 844 24.92 18.4 65.1 53 8.9 48
12:35 1015 29.97 844 24.92 17.8 64 56 9.1 48.3
12:40 1014 29.94 844 24.92 18.1 64.5 52 8.2 46.8
12:45 1014 29.94 844 24.92 17.2 63 56 8.6 47.5
12:50 1014 29.94 843 24.89 17.2 63 55 8.1 46.6
12:55 1014 29.94 843 24.89 17.4 63.3 52 7.5 45.6
13:00 1014 29.94 843 24.89 18.4 65 50 7.8 46
13:05 1014 29.94 843 24.89 18.7 65.7 49 8 46.4
13:10 1014 29.94 843 24.89 18.2 64.8 52 8.3 47
13:15 1014 29.94 843 24.89 18.1 64.5 54 8.6 47.5
13:20 1014 29.94 843 24.89 18.1 64.5 52 8.1 46.5
13:25 1014 29.94 843 24.89 19.4 67 49 8.5 47.3
13:30 1014 29.94 843 24.89 19.4 66.9 47 8.1 46.5
13:35 1014 29.94 843 24.89 19.7 67.5 46 7.8 46
13:40 1014 29.94 843 24.89 19.1 66.4 48 7.9 46.2
13:45 1014 29.94 843 24.89 19.7 67.4 46 7.7 45.9
13:50 1014 29.94 843 24.89 20.1 68.1 47 8.4 47.2
13:55 1014 29.94 843 24.89 19.3 66.7 49 8.5 47.3
14:00 1014 29.94 843 24.89 18.5 65.3 53 8.7 47.7
14:05 1014 29.94 843 24.89 17.8 64.1 62 10.7 51.2
14:10 1014 29.94 843 24.89 16.3 61.4 49 5.8 42.5
14:15 1014 29.94 843 24.89 15.2 59.3 54 6 42.8
14:20 1013 29.91 843 24.89 16 60.7 54 6.7 44.1
14:25 1013 29.91 843 24.89 17.2 63 57 8.7 47.7
14:30 1013 29.91 842 24.86 17.9 64.2 52 8.2 46.7
14:35 1013 29.91 842 24.86 18.2 64.7 58 9.8 49.6
14:40 1013 29.91 842 24.86 18.2 64.8 51 8 46.5
14:45 1013 29.91 842 24.86 18.2 64.8 47 6.9 44.4
14:50 1013 29.91 842 24.86 18.3 64.9 46 6.7 44
14:55 1013 29.91 842 24.86 18.7 65.6 44 6.2 43.1
15:00 1013 29.91 842 24.86 18.6 65.6 44 6.2 43.1
15:05 1013 29.91 842 24.86 19.3 66.8 40 5.5 42
15:10 1013 29.91 842 24.86 19.3 66.7 40 5.6 42
15:15 1012 29.88 842 24.86 19.2 66.5 36 4.1 39.3
15:20 1012 29.88 842 24.86 19.6 67.2 35 4 39.2
15:25 1012 29.88 842 24.86 20.2 68.3 34 4 39.2
15:30 1012 29.88 842 24.86 20.8 69.4 35 4.8 40.7
15:35 1012 29.88 842 24.86 21 69.7 34 4.6 40.4
15:40 1012 29.88 841 24.83 19.9 67.8 35 4.1 39.4
15:45 1012 29.88 842 24.86 18.6 65.5 39 4.6 40.3
15:50 1012 29.88 842 24.86 18.6 65.5 38 4.2 39.6
15:55 1013 29.91 842 24.86 18.4 65.1 40 4.7 40.5
16:00 1013 29.91 842 24.86 17.4 63.3 47 6.1 42.9
16:05 1013 29.91 842 24.86 14.7 58.5 64 8.1 46.6
16:10 1013 29.91 843 24.89 11.9 53.3 68 6.3 43.3
16:15 1014 29.94 843 24.89 11.3 52.4 70 6.1 43
16:20 1014 29.94 843 24.89 11.6 52.8 72 6.7 44.1
16:25 1013 29.91 843 24.89 12 53.5 71 6.8 44.2
16:30 1014 29.94 843 24.89 11.9 53.4 72 7 44.5
16:35 1014 29.94 843 24.89 11.8 53.3 70 6.5 43.8
16:40 1014 29.94 843 24.89 11.8 53.2 68 6.1 43
16:45 1013 29.91 842 24.86 12 53.7 62 4.9 40.9
16:50 1013 29.91 842 24.86 12.5 54.5 53 3.3 37.9
16:55 1012 29.88 842 24.86 13.7 56.7 49 3.2 37.8
17:00 1012 29.88 842 24.86 12.8 55 64 6.1 43
17:05 1013 29.91 842 24.86 11.7 53 64 5.2 41.4
17:10 1013 29.91 842 24.86 11.8 53.2 65 5.4 41.8
17:15 1013 29.91 842 24.86 11.9 53.4 64 5.3 41.6
17:20 1013 29.91 842 24.86 11.9 53.4 65 5.7 42.2
17:25 1013 29.91 842 24.86 11.9 53.5 65 5.5 41.9
17:30 1013 29.91 842 24.86 12.5 54.4 57 4.4 39.8
17:35 1013 29.91 843 24.89 13 55.5 58 5 41.1
17:40 1014 29.94 843 24.89 12.8 55.1 58 4.9 40.7
17:45 1014 29.94 843 24.89 12.6 54.6 58 4.7 40.4
17:50 1014 29.94 843 24.89 12.5 54.5 57 4.3 39.7
17:55 1014 29.94 843 24.89 12.4 54.4 59 4.6 40.3
18:00 1014 29.94 843 24.89 12 53.6 60 4.6 40.4
18:05 1014 29.94 843 24.89 11.6 52.9 64 5.1 41.2
18:10 1014 29.94 843 24.89 11.4 52.5 69 5.9 42.6
18:15 1014 29.94 844 24.92 11.4 52.6 71 6.5 43.6
18:20 1015 29.97 844 24.92 11.3 52.3 75 7 44.5
18:25 1015 29.97 844 24.92 10.9 51.7 79 7.5 45.5
18:30 1015 29.97 844 24.92 10.5 50.9 84 7.9 46.2
18:35 1015 29.97 844 24.92 10.3 50.5 84 7.7 45.8
18:40 1015 29.97 844 24.92 10.1 50.2 83 7.3 45.1
18:45 1015 29.97 844 24.92 10 50 84 7.4 45.3
18:50 1015 29.97 844 24.92 10.1 50.1 84 7.4 45.4
18:55 1014 29.94 844 24.92 10.1 50.1 82 7.1 44.8
19:00 1014 29.94 844 24.92 10 50.1 82 7.2 44.9
19:05 1014 29.94 844 24.92 10.2 50.3 83 7.4 45.4
19:10 1015 29.97 844 24.92 10.3 50.5 84 7.7 45.8
19:15 1015 29.97 844 24.92 10.3 50.5 84 7.7 45.9
19:20 1014 29.94 844 24.92 10.5 50.9 84 7.9 46.2
19:25 1014 29.94 844 24.92 10.4 50.7 86 8.1 46.6
19:30 1014 29.94 844 24.92 10.3 50.5 83 7.5 45.4
19:35 1014 29.94 844 24.92 10 50.1 81 6.9 44.4
19:40 1014 29.94 844 24.92 9.9 49.7 81 6.8 44.3
19:45 1014 29.94 844 24.92 9.9 49.9 82 7.1 44.7
19:50 1014 29.94 844 24.92 9.9 49.9 82 7.1 44.7
19:55 1014 29.94 844 24.92 9.9 49.9 80 6.7 44.1
20:00 1015 29.97 844 24.92 10 50 81 6.9 44.5
20:05 1015 29.97 844 24.92 10 50 80 6.7 44.1
20:10 1015 29.97 844 24.92 10.1 50.3 81 7.1 44.8
20:15 1015 29.97 844 24.92 10.4 50.6 81 7.3 45.2
20:20 1015 29.97 844 24.92 9.7 49.4 78 6.1 42.9
20:25 1015 29.97 844 24.92 9.1 48.5 78 5.4 41.8
20:30 1015 29.97 844 24.92 8.9 47.9 78 5.2 41.4
20:35 1015 29.97 844 24.92 8.8 47.9 79 5.4 41.8
20:40 1015 29.97 844 24.92 9 48.2 74 4.6 40.3
20:45 1015 29.97 844 24.92 8.6 47.5 80 5.4 41.7
20:50 1015 29.97 844 24.92 7.5 45.5 83 4.9 40.7
20:55 1015 29.97 844 24.92 7.3 45.1 84 4.8 40.6
21:00 1015 29.97 844 24.92 7.2 44.9 86 5 40.9
21:05 1015 29.97 844 24.92 7.1 44.8 87 5.1 41.2
21:10 1015 29.97 844 24.92 7.1 44.7 88 5.2 41.4
21:15 1015 29.97 844 24.92 7.1 44.7 88 5.3 41.5
21:20 1015 29.97 844 24.92 7.1 44.7 87 5 41.1
21:25 1015 29.97 844 24.92 7.1 44.7 87 5 41
21:30 1015 29.97 844 24.92 7.1 44.9 86 4.9 40.9
21:35 1015 29.97 844 24.92 7.3 45.1 85 5 40.9
21:40 1015 29.97 844 24.92 7.4 45.3 84 5 40.9
21:45 1015 29.97 844 24.92 7.5 45.4 85 5.1 41.2
21:50 1015 29.97 844 24.92 7.4 45.3 85 5.1 41.1
21:55 1015 29.97 844 24.92 7.3 45.1 86 5 41
22:00 1015 29.97 844 24.92 7.2 44.9 86 5 40.9
22:05 1015 29.97 844 24.92 7.2 44.9 86 4.9 40.8
22:10 1015 29.97 844 24.92 7.1 44.8 86 4.9 40.9
22:15 1015 29.97 844 24.92 7 44.7 86 4.9 40.8
22:20 1015 29.97 844 24.92 7 44.5 87 4.9 40.8
22:25 1015 29.97 844 24.92 6.7 44.1 88 4.9 40.9
22:30 1015 29.97 844 24.92 6.5 43.8 89 4.9 40.8
22:35 1015 29.97 844 24.92 6.4 43.6 90 4.9 40.9
22:40 1015 29.97 844 24.92 6.4 43.4 90 4.9 40.8
22:45 1015 29.97 844 24.92 6.5 43.7 90 4.9 40.9
22:50 1015 29.97 844 24.92 6.8 44.3 89 5.1 41.3
22:55 1015 29.97 844 24.92 6.9 44.4 89 5.2 41.4
23:00 1015 29.97 844 24.92 7 44.6 88 5.2 41.4
23:05 1015 29.97 844 24.92 6.9 44.4 88 5.1 41.2
23:10 1015 29.97 844 24.92 6.8 44.3 88 5 41
23:15 1015 29.97 844 24.92 6.7 44 90 5.1 41.2
23:20 1015 29.97 844 24.92 6.5 43.8 90 5 41
23:25 1015 29.97 844 24.92 6.4 43.5 91 5 41
23:30 1015 29.97 844 24.92 6.3 43.4 91 4.9 40.9
23:35 1015 29.97 844 24.92 6.3 43.3 91 5 41
23:40 1015 29.97 844 24.92 6.3 43.4 91 5 41
23:45 1015 29.97 844 24.92 6.4 43.5 91 5.1 41.2
23:50 1015 29.97 844 24.92 6.6 43.9 91 5.3 41.5
23:55 1015 29.97 844 24.92 6.6 43.9 92 5.4 41.7
24:00 1015 29.97 844 24.92 6.5 43.7 93 5.4 41.8